sensor_id;sensor_type;location;lat;lon;timestamp;P1;durP1;ratioP1;P2;durP2;ratioP2
14268;SDS011;7218;51.480;7.006;2022-07-15T00:01:34;7.28;;;2.90;;
14268;SDS011;7218;51.480;7.006;2022-07-15T00:04:00;9.35;;;2.95;;
14268;SDS011;7218;51.480;7.006;2022-07-15T00:06:27;7.13;;;2.60;;
14268;SDS011;7218;51.480;7.006;2022-07-15T00:08:55;8.00;;;2.60;;
14268;SDS011;7218;51.480;7.006;2022-07-15T00:11:21;8.02;;;2.97;;
14268;SDS011;7218;51.480;7.006;2022-07-15T00:13:48;7.90;;;2.97;;
14268;SDS011;7218;51.480;7.006;2022-07-15T00:16:14;6.15;;;3.00;;
14268;SDS011;7218;51.480;7.006;2022-07-15T00:18:41;5.45;;;2.65;;
14268;SDS011;7218;51.480;7.006;2022-07-15T00:21:07;5.43;;;2.47;;
14268;SDS011;7218;51.480;7.006;2022-07-15T00:23:34;5.10;;;2.60;;
14268;SDS011;7218;51.480;7.006;2022-07-15T00:26:02;6.45;;;2.60;;
14268;SDS011;7218;51.480;7.006;2022-07-15T00:28:29;6.50;;;3.08;;
14268;SDS011;7218;51.480;7.006;2022-07-15T00:30:56;7.43;;;2.92;;
14268;SDS011;7218;51.480;7.006;2022-07-15T00:33:22;9.15;;;2.88;;
14268;SDS011;7218;51.480;7.006;2022-07-15T00:35:49;9.40;;;2.60;;
14268;SDS011;7218;51.480;7.006;2022-07-15T00:38:15;7.90;;;2.40;;
14268;SDS011;7218;51.480;7.006;2022-07-15T00:40:42;8.20;;;2.78;;
14268;SDS011;7218;51.480;7.006;2022-07-15T00:43:12;8.75;;;2.83;;
14268;SDS011;7218;51.480;7.006;2022-07-15T00:45:41;5.53;;;2.50;;
14268;SDS011;7218;51.480;7.006;2022-07-15T00:48:07;9.70;;;2.70;;
14268;SDS011;7218;51.480;7.006;2022-07-15T00:50:34;8.20;;;2.72;;
14268;SDS011;7218;51.480;7.006;2022-07-15T00:53:02;6.35;;;2.88;;
14268;SDS011;7218;51.480;7.006;2022-07-15T00:55:31;7.80;;;2.40;;
14268;SDS011;7218;51.480;7.006;2022-07-15T00:58:00;6.82;;;2.65;;
14268;SDS011;7218;51.480;7.006;2022-07-15T01:00:29;6.80;;;2.78;;
14268;SDS011;7218;51.480;7.006;2022-07-15T01:02:56;6.90;;;3.08;;
14268;SDS011;7218;51.480;7.006;2022-07-15T01:05:24;8.35;;;3.10;;
14268;SDS011;7218;51.480;7.006;2022-07-15T01:07:51;9.40;;;2.78;;
14268;SDS011;7218;51.480;7.006;2022-07-15T01:10:18;10.00;;;2.63;;
14268;SDS011;7218;51.480;7.006;2022-07-15T01:12:46;7.32;;;2.70;;
14268;SDS011;7218;51.480;7.006;2022-07-15T01:15:13;9.00;;;2.80;;
14268;SDS011;7218;51.480;7.006;2022-07-15T01:17:41;8.13;;;2.92;;
14268;SDS011;7218;51.480;7.006;2022-07-15T01:20:09;8.02;;;2.38;;
14268;SDS011;7218;51.480;7.006;2022-07-15T01:22:38;6.63;;;2.28;;
14268;SDS011;7218;51.480;7.006;2022-07-15T01:25:05;10.13;;;2.90;;
14268;SDS011;7218;51.480;7.006;2022-07-15T01:27:32;8.48;;;2.53;;
14268;SDS011;7218;51.480;7.006;2022-07-15T01:29:59;8.40;;;3.10;;
14268;SDS011;7218;51.480;7.006;2022-07-15T01:32:26;7.50;;;2.70;;
14268;SDS011;7218;51.480;7.006;2022-07-15T01:34:52;6.75;;;2.65;;
14268;SDS011;7218;51.480;7.006;2022-07-15T01:37:19;10.32;;;2.67;;
14268;SDS011;7218;51.480;7.006;2022-07-15T01:39:47;4.65;;;2.30;;
14268;SDS011;7218;51.480;7.006;2022-07-15T01:42:13;6.80;;;2.63;;
14268;SDS011;7218;51.480;7.006;2022-07-15T01:44:40;9.43;;;2.70;;
14268;SDS011;7218;51.480;7.006;2022-07-15T01:47:06;5.85;;;2.65;;
14268;SDS011;7218;51.480;7.006;2022-07-15T01:49:33;7.82;;;3.30;;
14268;SDS011;7218;51.480;7.006;2022-07-15T01:52:00;8.70;;;3.15;;
14268;SDS011;7218;51.480;7.006;2022-07-15T01:54:28;6.60;;;2.88;;
14268;SDS011;7218;51.480;7.006;2022-07-15T01:56:57;5.65;;;2.72;;
14268;SDS011;7218;51.480;7.006;2022-07-15T01:59:24;8.13;;;2.50;;
14268;SDS011;7218;51.480;7.006;2022-07-15T02:01:52;10.38;;;3.25;;
14268;SDS011;7218;51.480;7.006;2022-07-15T02:04:20;8.68;;;3.10;;
14268;SDS011;7218;51.480;7.006;2022-07-15T02:06:47;11.35;;;3.33;;
14268;SDS011;7218;51.480;7.006;2022-07-15T02:09:13;6.93;;;2.70;;
14268;SDS011;7218;51.480;7.006;2022-07-15T02:11:40;8.52;;;2.58;;
14268;SDS011;7218;51.480;7.006;2022-07-15T02:14:08;8.65;;;2.60;;
14268;SDS011;7218;51.480;7.006;2022-07-15T02:16:35;8.48;;;2.90;;
14268;SDS011;7218;51.480;7.006;2022-07-15T02:19:02;7.75;;;2.67;;
14268;SDS011;7218;51.480;7.006;2022-07-15T02:21:28;6.13;;;2.60;;
14268;SDS011;7218;51.480;7.006;2022-07-15T02:23:55;8.30;;;2.88;;
14268;SDS011;7218;51.480;7.006;2022-07-15T02:26:23;5.97;;;2.45;;
14268;SDS011;7218;51.480;7.006;2022-07-15T02:28:50;6.68;;;2.55;;
14268;SDS011;7218;51.480;7.006;2022-07-15T02:31:18;6.75;;;2.50;;
14268;SDS011;7218;51.480;7.006;2022-07-15T02:33:44;7.50;;;2.65;;
14268;SDS011;7218;51.480;7.006;2022-07-15T02:36:11;13.13;;;3.63;;
14268;SDS011;7218;51.480;7.006;2022-07-15T02:38:37;8.13;;;3.03;;
14268;SDS011;7218;51.480;7.006;2022-07-15T02:41:05;8.05;;;2.50;;
14268;SDS011;7218;51.480;7.006;2022-07-15T02:43:32;6.35;;;3.00;;
14268;SDS011;7218;51.480;7.006;2022-07-15T02:45:59;7.60;;;2.63;;
14268;SDS011;7218;51.480;7.006;2022-07-15T02:48:27;7.32;;;2.83;;
14268;SDS011;7218;51.480;7.006;2022-07-15T02:50:54;6.15;;;2.50;;
14268;SDS011;7218;51.480;7.006;2022-07-15T02:53:21;6.88;;;2.53;;
14268;SDS011;7218;51.480;7.006;2022-07-15T02:55:53;7.57;;;2.80;;
14268;SDS011;7218;51.480;7.006;2022-07-15T02:58:20;8.15;;;2.67;;
14268;SDS011;7218;51.480;7.006;2022-07-15T03:00:47;7.95;;;3.05;;
14268;SDS011;7218;51.480;7.006;2022-07-15T03:03:14;8.60;;;2.67;;
14268;SDS011;7218;51.480;7.006;2022-07-15T03:05:42;6.97;;;2.83;;
14268;SDS011;7218;51.480;7.006;2022-07-15T03:08:09;6.38;;;2.90;;
14268;SDS011;7218;51.480;7.006;2022-07-15T03:10:36;8.10;;;2.70;;
14268;SDS011;7218;51.480;7.006;2022-07-15T03:13:03;7.10;;;2.70;;
14268;SDS011;7218;51.480;7.006;2022-07-15T03:15:29;8.85;;;3.00;;
14268;SDS011;7218;51.480;7.006;2022-07-15T03:17:56;6.72;;;3.22;;
14268;SDS011;7218;51.480;7.006;2022-07-15T03:20:22;7.10;;;2.83;;
14268;SDS011;7218;51.480;7.006;2022-07-15T03:22:50;7.93;;;2.75;;
14268;SDS011;7218;51.480;7.006;2022-07-15T03:25:17;8.02;;;3.13;;
14268;SDS011;7218;51.480;7.006;2022-07-15T03:27:44;9.85;;;2.95;;
14268;SDS011;7218;51.480;7.006;2022-07-15T03:30:10;7.78;;;3.17;;
14268;SDS011;7218;51.480;7.006;2022-07-15T03:32:37;9.93;;;3.63;;
14268;SDS011;7218;51.480;7.006;2022-07-15T03:35:03;7.95;;;3.05;;
14268;SDS011;7218;51.480;7.006;2022-07-15T03:37:30;6.65;;;3.10;;
14268;SDS011;7218;51.480;7.006;2022-07-15T03:39:58;6.68;;;2.83;;
14268;SDS011;7218;51.480;7.006;2022-07-15T03:42:25;8.90;;;3.00;;
14268;SDS011;7218;51.480;7.006;2022-07-15T03:44:51;6.18;;;2.85;;
14268;SDS011;7218;51.480;7.006;2022-07-15T03:47:18;10.30;;;3.28;;
14268;SDS011;7218;51.480;7.006;2022-07-15T03:49:44;5.70;;;2.80;;
14268;SDS011;7218;51.480;7.006;2022-07-15T03:52:11;9.35;;;2.80;;
14268;SDS011;7218;51.480;7.006;2022-07-15T03:54:37;8.10;;;2.90;;
14268;SDS011;7218;51.480;7.006;2022-07-15T03:57:05;12.95;;;3.05;;
14268;SDS011;7218;51.480;7.006;2022-07-15T03:59:31;8.57;;;3.20;;
14268;SDS011;7218;51.480;7.006;2022-07-15T04:01:58;9.43;;;2.88;;
14268;SDS011;7218;51.480;7.006;2022-07-15T04:04:24;8.38;;;3.10;;
14268;SDS011;7218;51.480;7.006;2022-07-15T04:06:51;7.95;;;3.05;;
14268;SDS011;7218;51.480;7.006;2022-07-15T04:09:17;6.00;;;2.88;;
14268;SDS011;7218;51.480;7.006;2022-07-15T04:11:44;8.05;;;2.92;;
14268;SDS011;7218;51.480;7.006;2022-07-15T04:14:12;9.43;;;3.00;;
14268;SDS011;7218;51.480;7.006;2022-07-15T04:16:40;11.07;;;3.30;;
14268;SDS011;7218;51.480;7.006;2022-07-15T04:19:06;7.72;;;2.92;;
14268;SDS011;7218;51.480;7.006;2022-07-15T04:21:33;10.23;;;3.15;;
14268;SDS011;7218;51.480;7.006;2022-07-15T04:23:59;9.80;;;3.38;;
14268;SDS011;7218;51.480;7.006;2022-07-15T04:26:26;6.25;;;2.70;;
14268;SDS011;7218;51.480;7.006;2022-07-15T04:28:53;14.52;;;3.30;;
14268;SDS011;7218;51.480;7.006;2022-07-15T04:31:21;9.32;;;3.30;;
14268;SDS011;7218;51.480;7.006;2022-07-15T04:33:47;6.85;;;3.38;;
14268;SDS011;7218;51.480;7.006;2022-07-15T04:36:14;10.40;;;3.30;;
14268;SDS011;7218;51.480;7.006;2022-07-15T04:38:40;8.55;;;3.40;;
14268;SDS011;7218;51.480;7.006;2022-07-15T04:41:06;9.32;;;3.38;;
14268;SDS011;7218;51.480;7.006;2022-07-15T04:43:34;9.98;;;3.22;;
14268;SDS011;7218;51.480;7.006;2022-07-15T04:46:00;13.05;;;3.78;;
14268;SDS011;7218;51.480;7.006;2022-07-15T04:48:28;14.32;;;3.47;;
14268;SDS011;7218;51.480;7.006;2022-07-15T04:51:12;11.77;;;3.28;;
14268;SDS011;7218;51.480;7.006;2022-07-15T04:53:39;8.73;;;3.45;;
14268;SDS011;7218;51.480;7.006;2022-07-15T04:56:06;8.63;;;3.15;;
14268;SDS011;7218;51.480;7.006;2022-07-15T04:58:32;7.85;;;3.30;;
14268;SDS011;7218;51.480;7.006;2022-07-15T05:00:59;10.48;;;3.08;;
14268;SDS011;7218;51.480;7.006;2022-07-15T05:03:25;11.48;;;3.30;;
14268;SDS011;7218;51.480;7.006;2022-07-15T05:05:53;8.02;;;3.42;;
14268;SDS011;7218;51.480;7.006;2022-07-15T05:08:20;15.38;;;3.25;;
14268;SDS011;7218;51.480;7.006;2022-07-15T05:10:47;10.77;;;3.55;;
14268;SDS011;7218;51.480;7.006;2022-07-15T05:13:13;7.40;;;3.15;;
14268;SDS011;7218;51.480;7.006;2022-07-15T05:15:40;7.80;;;3.08;;
14268;SDS011;7218;51.480;7.006;2022-07-15T05:18:06;7.95;;;3.10;;
14268;SDS011;7218;51.480;7.006;2022-07-15T05:20:33;9.95;;;3.47;;
14268;SDS011;7218;51.480;7.006;2022-07-15T05:23:01;9.13;;;3.20;;
14268;SDS011;7218;51.480;7.006;2022-07-15T05:25:28;9.20;;;3.42;;
14268;SDS011;7218;51.480;7.006;2022-07-15T05:27:54;10.07;;;3.55;;
14268;SDS011;7218;51.480;7.006;2022-07-15T05:30:21;8.75;;;3.45;;
14268;SDS011;7218;51.480;7.006;2022-07-15T05:32:48;11.38;;;3.47;;
14268;SDS011;7218;51.480;7.006;2022-07-15T05:35:14;9.23;;;3.33;;
14268;SDS011;7218;51.480;7.006;2022-07-15T05:37:41;9.07;;;3.20;;
14268;SDS011;7218;51.480;7.006;2022-07-15T05:40:10;9.75;;;3.30;;
14268;SDS011;7218;51.480;7.006;2022-07-15T05:42:37;6.90;;;3.00;;
14268;SDS011;7218;51.480;7.006;2022-07-15T05:45:05;9.02;;;3.22;;
14268;SDS011;7218;51.480;7.006;2022-07-15T05:47:33;9.02;;;3.10;;
14268;SDS011;7218;51.480;7.006;2022-07-15T05:49:59;12.10;;;2.83;;
14268;SDS011;7218;51.480;7.006;2022-07-15T05:52:26;8.95;;;3.10;;
14268;SDS011;7218;51.480;7.006;2022-07-15T05:54:52;7.60;;;3.00;;
14268;SDS011;7218;51.480;7.006;2022-07-15T05:57:20;9.00;;;2.70;;
14268;SDS011;7218;51.480;7.006;2022-07-15T05:59:47;11.38;;;3.40;;
14268;SDS011;7218;51.480;7.006;2022-07-15T06:02:13;11.57;;;3.50;;
14268;SDS011;7218;51.480;7.006;2022-07-15T06:04:40;9.95;;;2.75;;
14268;SDS011;7218;51.480;7.006;2022-07-15T06:07:06;11.13;;;2.92;;
14268;SDS011;7218;51.480;7.006;2022-07-15T06:09:33;7.50;;;2.83;;
14268;SDS011;7218;51.480;7.006;2022-07-15T06:11:59;9.02;;;2.72;;
14268;SDS011;7218;51.480;7.006;2022-07-15T06:14:27;8.02;;;2.38;;
14268;SDS011;7218;51.480;7.006;2022-07-15T06:16:54;9.00;;;2.40;;
14268;SDS011;7218;51.480;7.006;2022-07-15T06:19:20;9.85;;;2.75;;
14268;SDS011;7218;51.480;7.006;2022-07-15T06:21:47;7.30;;;2.40;;
14268;SDS011;7218;51.480;7.006;2022-07-15T06:24:13;8.10;;;2.65;;
14268;SDS011;7218;51.480;7.006;2022-07-15T06:26:40;9.70;;;2.80;;
14268;SDS011;7218;51.480;7.006;2022-07-15T06:29:06;8.45;;;2.28;;
14268;SDS011;7218;51.480;7.006;2022-07-15T06:31:34;7.18;;;2.00;;
14268;SDS011;7218;51.480;7.006;2022-07-15T06:34:01;6.40;;;2.20;;
14268;SDS011;7218;51.480;7.006;2022-07-15T06:36:27;6.05;;;1.85;;
14268;SDS011;7218;51.480;7.006;2022-07-15T06:38:54;10.10;;;2.00;;
14268;SDS011;7218;51.480;7.006;2022-07-15T06:41:20;8.88;;;2.08;;
14268;SDS011;7218;51.480;7.006;2022-07-15T06:43:47;7.60;;;2.03;;
14268;SDS011;7218;51.480;7.006;2022-07-15T06:46:13;6.45;;;2.00;;
14268;SDS011;7218;51.480;7.006;2022-07-15T06:48:47;6.25;;;2.05;;
14268;SDS011;7218;51.480;7.006;2022-07-15T06:51:14;5.70;;;2.10;;
14268;SDS011;7218;51.480;7.006;2022-07-15T06:53:40;5.05;;;1.80;;
14268;SDS011;7218;51.480;7.006;2022-07-15T06:56:07;6.43;;;1.88;;
14268;SDS011;7218;51.480;7.006;2022-07-15T06:58:33;6.50;;;1.85;;
14268;SDS011;7218;51.480;7.006;2022-07-15T07:01:00;6.10;;;2.03;;
14268;SDS011;7218;51.480;7.006;2022-07-15T07:03:27;5.75;;;1.80;;
14268;SDS011;7218;51.480;7.006;2022-07-15T07:05:55;5.85;;;2.00;;
14268;SDS011;7218;51.480;7.006;2022-07-15T07:08:22;7.38;;;2.17;;
14268;SDS011;7218;51.480;7.006;2022-07-15T07:10:50;5.80;;;1.88;;
14268;SDS011;7218;51.480;7.006;2022-07-15T07:13:17;5.05;;;1.88;;
14268;SDS011;7218;51.480;7.006;2022-07-15T07:15:43;6.65;;;1.70;;
14268;SDS011;7218;51.480;7.006;2022-07-15T07:18:10;6.43;;;2.20;;
14268;SDS011;7218;51.480;7.006;2022-07-15T07:20:36;6.60;;;2.28;;
14268;SDS011;7218;51.480;7.006;2022-07-15T07:23:04;7.13;;;2.00;;
14268;SDS011;7218;51.480;7.006;2022-07-15T07:25:31;6.88;;;1.60;;
14268;SDS011;7218;51.480;7.006;2022-07-15T07:27:57;7.30;;;1.80;;
14268;SDS011;7218;51.480;7.006;2022-07-15T07:30:28;4.95;;;1.80;;
14268;SDS011;7218;51.480;7.006;2022-07-15T07:32:55;11.40;;;2.35;;
14268;SDS011;7218;51.480;7.006;2022-07-15T07:35:22;5.80;;;1.75;;
14268;SDS011;7218;51.480;7.006;2022-07-15T07:37:49;6.30;;;1.90;;
14268;SDS011;7218;51.480;7.006;2022-07-15T07:40:17;8.00;;;1.70;;
14268;SDS011;7218;51.480;7.006;2022-07-15T07:42:44;4.13;;;1.60;;
14268;SDS011;7218;51.480;7.006;2022-07-15T07:45:11;6.95;;;1.95;;
14268;SDS011;7218;51.480;7.006;2022-07-15T07:47:37;4.40;;;1.83;;
14268;SDS011;7218;51.480;7.006;2022-07-15T07:50:06;4.47;;;1.73;;
14268;SDS011;7218;51.480;7.006;2022-07-15T07:52:34;7.68;;;1.98;;
14268;SDS011;7218;51.480;7.006;2022-07-15T07:55:01;7.05;;;2.05;;
14268;SDS011;7218;51.480;7.006;2022-07-15T07:57:28;8.20;;;1.80;;
14268;SDS011;7218;51.480;7.006;2022-07-15T07:59:55;6.82;;;1.90;;
14268;SDS011;7218;51.480;7.006;2022-07-15T08:02:21;6.47;;;1.75;;
14268;SDS011;7218;51.480;7.006;2022-07-15T08:04:49;5.97;;;1.70;;
14268;SDS011;7218;51.480;7.006;2022-07-15T08:07:16;7.40;;;2.25;;
14268;SDS011;7218;51.480;7.006;2022-07-15T08:09:43;6.60;;;1.70;;
14268;SDS011;7218;51.480;7.006;2022-07-15T08:12:10;9.88;;;2.13;;
14268;SDS011;7218;51.480;7.006;2022-07-15T08:14:38;6.75;;;2.00;;
14268;SDS011;7218;51.480;7.006;2022-07-15T08:17:04;7.32;;;1.90;;
14268;SDS011;7218;51.480;7.006;2022-07-15T08:19:31;6.68;;;1.90;;
14268;SDS011;7218;51.480;7.006;2022-07-15T08:21:57;10.10;;;1.92;;
14268;SDS011;7218;51.480;7.006;2022-07-15T08:24:24;6.38;;;1.73;;
14268;SDS011;7218;51.480;7.006;2022-07-15T08:26:50;5.22;;;1.75;;
14268;SDS011;7218;51.480;7.006;2022-07-15T08:29:17;5.95;;;1.55;;
14268;SDS011;7218;51.480;7.006;2022-07-15T08:31:45;2.88;;;1.38;;
14268;SDS011;7218;51.480;7.006;2022-07-15T08:34:12;6.90;;;1.70;;
14268;SDS011;7218;51.480;7.006;2022-07-15T08:36:38;4.80;;;1.52;;
14268;SDS011;7218;51.480;7.006;2022-07-15T08:39:05;5.47;;;1.80;;
14268;SDS011;7218;51.480;7.006;2022-07-15T08:41:33;5.50;;;1.50;;
14268;SDS011;7218;51.480;7.006;2022-07-15T08:44:00;6.50;;;1.63;;
14268;SDS011;7218;51.480;7.006;2022-07-15T08:46:27;6.10;;;1.50;;
14268;SDS011;7218;51.480;7.006;2022-07-15T08:48:58;4.30;;;1.30;;
14268;SDS011;7218;51.480;7.006;2022-07-15T08:51:28;4.00;;;1.40;;
14268;SDS011;7218;51.480;7.006;2022-07-15T08:53:59;3.42;;;1.17;;
14268;SDS011;7218;51.480;7.006;2022-07-15T08:56:25;4.93;;;1.23;;
14268;SDS011;7218;51.480;7.006;2022-07-15T08:58:52;3.42;;;1.30;;
14268;SDS011;7218;51.480;7.006;2022-07-15T09:01:20;4.35;;;1.40;;
14268;SDS011;7218;51.480;7.006;2022-07-15T09:03:46;6.60;;;2.03;;
14268;SDS011;7218;51.480;7.006;2022-07-15T09:06:21;3.42;;;1.38;;
14268;SDS011;7218;51.480;7.006;2022-07-15T09:08:56;5.53;;;1.20;;
14268;SDS011;7218;51.480;7.006;2022-07-15T09:11:27;4.03;;;1.33;;
14268;SDS011;7218;51.480;7.006;2022-07-15T09:13:54;3.03;;;1.30;;
14268;SDS011;7218;51.480;7.006;2022-07-15T09:16:24;6.53;;;1.90;;
14268;SDS011;7218;51.480;7.006;2022-07-15T09:18:51;4.10;;;1.40;;
14268;SDS011;7218;51.480;7.006;2022-07-15T09:21:19;3.15;;;1.20;;
14268;SDS011;7218;51.480;7.006;2022-07-15T09:23:49;4.72;;;1.30;;
14268;SDS011;7218;51.480;7.006;2022-07-15T09:26:23;6.30;;;1.75;;
14268;SDS011;7218;51.480;7.006;2022-07-15T09:28:52;3.88;;;1.30;;
14268;SDS011;7218;51.480;7.006;2022-07-15T09:31:29;2.92;;;1.38;;
14268;SDS011;7218;51.480;7.006;2022-07-15T09:34:14;2.85;;;1.30;;
14268;SDS011;7218;51.480;7.006;2022-07-15T09:36:43;5.68;;;1.20;;
14268;SDS011;7218;51.480;7.006;2022-07-15T09:39:11;2.83;;;1.20;;
14268;SDS011;7218;51.480;7.006;2022-07-15T09:41:38;4.85;;;1.50;;
14268;SDS011;7218;51.480;7.006;2022-07-15T09:44:07;5.93;;;1.40;;
14268;SDS011;7218;51.480;7.006;2022-07-15T09:46:39;3.53;;;1.40;;
14268;SDS011;7218;51.480;7.006;2022-07-15T09:49:07;5.72;;;1.80;;
14268;SDS011;7218;51.480;7.006;2022-07-15T09:51:43;4.60;;;1.50;;
14268;SDS011;7218;51.480;7.006;2022-07-15T09:54:11;6.95;;;1.88;;
14268;SDS011;7218;51.480;7.006;2022-07-15T09:56:38;3.78;;;1.50;;
14268;SDS011;7218;51.480;7.006;2022-07-15T09:59:05;6.47;;;2.22;;
14268;SDS011;7218;51.480;7.006;2022-07-15T10:01:33;3.88;;;1.80;;
14268;SDS011;7218;51.480;7.006;2022-07-15T10:04:00;3.47;;;1.50;;
14268;SDS011;7218;51.480;7.006;2022-07-15T10:06:27;4.32;;;1.67;;
14268;SDS011;7218;51.480;7.006;2022-07-15T10:08:55;4.90;;;1.45;;
14268;SDS011;7218;51.480;7.006;2022-07-15T10:11:23;4.82;;;1.42;;
14268;SDS011;7218;51.480;7.006;2022-07-15T10:17:26;2.83;;;1.30;;
14268;SDS011;7218;51.480;7.006;2022-07-15T10:20:11;5.07;;;1.40;;
14268;SDS011;7218;51.480;7.006;2022-07-15T10:22:49;4.78;;;1.60;;
14268;SDS011;7218;51.480;7.006;2022-07-15T10:25:25;3.47;;;1.40;;
14268;SDS011;7218;51.480;7.006;2022-07-15T10:28:13;4.13;;;1.38;;
14268;SDS011;7218;51.480;7.006;2022-07-15T10:30:42;3.58;;;1.50;;
14268;SDS011;7218;51.480;7.006;2022-07-15T10:33:10;4.25;;;1.70;;
14268;SDS011;7218;51.480;7.006;2022-07-15T10:35:41;2.75;;;1.40;;
14268;SDS011;7218;51.480;7.006;2022-07-15T10:38:19;3.85;;;1.70;;
14268;SDS011;7218;51.480;7.006;2022-07-15T10:40:59;2.55;;;1.27;;
14268;SDS011;7218;51.480;7.006;2022-07-15T10:46:20;4.78;;;1.30;;
14268;SDS011;7218;51.480;7.006;2022-07-15T10:48:49;2.78;;;1.10;;
14268;SDS011;7218;51.480;7.006;2022-07-15T10:57:07;3.08;;;1.10;;
14268;SDS011;7218;51.480;7.006;2022-07-15T10:59:35;2.67;;;1.20;;
14268;SDS011;7218;51.480;7.006;2022-07-15T11:02:16;3.15;;;1.23;;
14268;SDS011;7218;51.480;7.006;2022-07-15T11:04:44;2.33;;;1.20;;
14268;SDS011;7218;51.480;7.006;2022-07-15T11:10:16;4.53;;;1.42;;
14268;SDS011;7218;51.480;7.006;2022-07-15T11:15:29;3.03;;;1.15;;
14268;SDS011;7218;51.480;7.006;2022-07-15T11:17:56;1.40;;;0.98;;
14268;SDS011;7218;51.480;7.006;2022-07-15T11:20:23;3.83;;;1.30;;
14268;SDS011;7218;51.480;7.006;2022-07-15T11:22:52;2.40;;;1.00;;
14268;SDS011;7218;51.480;7.006;2022-07-15T11:25:21;4.22;;;1.40;;
14268;SDS011;7218;51.480;7.006;2022-07-15T11:27:55;2.40;;;1.10;;
14268;SDS011;7218;51.480;7.006;2022-07-15T11:30:30;2.45;;;1.23;;
14268;SDS011;7218;51.480;7.006;2022-07-15T11:32:59;2.63;;;1.20;;
14268;SDS011;7218;51.480;7.006;2022-07-15T11:35:28;1.85;;;1.10;;
14268;SDS011;7218;51.480;7.006;2022-07-15T11:37:59;2.42;;;1.15;;
14268;SDS011;7218;51.480;7.006;2022-07-15T11:40:27;2.63;;;0.95;;
14268;SDS011;7218;51.480;7.006;2022-07-15T11:43:14;2.38;;;0.80;;
14268;SDS011;7218;51.480;7.006;2022-07-15T11:46:00;1.27;;;0.90;;
14268;SDS011;7218;51.480;7.006;2022-07-15T11:48:33;2.42;;;1.30;;
14268;SDS011;7218;51.480;7.006;2022-07-15T11:51:00;3.63;;;1.05;;
14268;SDS011;7218;51.480;7.006;2022-07-15T11:53:27;1.85;;;1.00;;
14268;SDS011;7218;51.480;7.006;2022-07-15T11:55:54;2.22;;;1.10;;
14268;SDS011;7218;51.480;7.006;2022-07-15T11:58:28;3.35;;;1.05;;
14268;SDS011;7218;51.480;7.006;2022-07-15T12:00:57;1.70;;;1.08;;
14268;SDS011;7218;51.480;7.006;2022-07-15T12:03:29;3.25;;;1.00;;
14268;SDS011;7218;51.480;7.006;2022-07-15T12:06:04;1.65;;;1.00;;
14268;SDS011;7218;51.480;7.006;2022-07-15T12:08:43;3.03;;;1.00;;
14268;SDS011;7218;51.480;7.006;2022-07-15T12:11:16;2.85;;;1.00;;
14268;SDS011;7218;51.480;7.006;2022-07-15T12:13:47;1.52;;;0.90;;
14268;SDS011;7218;51.480;7.006;2022-07-15T12:16:17;3.05;;;0.90;;
14268;SDS011;7218;51.480;7.006;2022-07-15T12:18:46;1.42;;;0.77;;
14268;SDS011;7218;51.480;7.006;2022-07-15T12:21:14;2.92;;;1.20;;
14268;SDS011;7218;51.480;7.006;2022-07-15T12:23:41;3.60;;;1.10;;
14268;SDS011;7218;51.480;7.006;2022-07-15T12:26:08;3.38;;;1.10;;
14268;SDS011;7218;51.480;7.006;2022-07-15T12:28:36;9.27;;;1.10;;
14268;SDS011;7218;51.480;7.006;2022-07-15T12:31:05;2.25;;;1.13;;
14268;SDS011;7218;51.480;7.006;2022-07-15T12:33:35;3.20;;;0.85;;
14268;SDS011;7218;51.480;7.006;2022-07-15T12:36:11;2.85;;;1.08;;
14268;SDS011;7218;51.480;7.006;2022-07-15T12:38:39;1.45;;;0.90;;
14268;SDS011;7218;51.480;7.006;2022-07-15T12:41:06;3.78;;;1.10;;
14268;SDS011;7218;51.480;7.006;2022-07-15T12:43:46;2.10;;;1.08;;
14268;SDS011;7218;51.480;7.006;2022-07-15T12:46:15;2.10;;;0.90;;
14268;SDS011;7218;51.480;7.006;2022-07-15T12:48:44;6.47;;;1.05;;
14268;SDS011;7218;51.480;7.006;2022-07-15T12:51:12;2.42;;;1.05;;
14268;SDS011;7218;51.480;7.006;2022-07-15T12:53:40;1.30;;;0.90;;
14268;SDS011;7218;51.480;7.006;2022-07-15T12:56:07;3.38;;;1.00;;
14268;SDS011;7218;51.480;7.006;2022-07-15T12:58:33;0.70;;;0.70;;
14268;SDS011;7218;51.480;7.006;2022-07-15T13:01:03;2.40;;;0.93;;
14268;SDS011;7218;51.480;7.006;2022-07-15T13:03:32;1.77;;;0.88;;
14268;SDS011;7218;51.480;7.006;2022-07-15T13:05:59;1.40;;;0.80;;
14268;SDS011;7218;51.480;7.006;2022-07-15T13:08:27;3.90;;;0.90;;
14268;SDS011;7218;51.480;7.006;2022-07-15T13:10:56;1.80;;;0.80;;
14268;SDS011;7218;51.480;7.006;2022-07-15T13:13:24;0.95;;;0.70;;
14268;SDS011;7218;51.480;7.006;2022-07-15T13:15:52;1.65;;;0.90;;
14268;SDS011;7218;51.480;7.006;2022-07-15T13:18:19;3.05;;;0.95;;
14268;SDS011;7218;51.480;7.006;2022-07-15T13:20:47;1.58;;;0.80;;
14268;SDS011;7218;51.480;7.006;2022-07-15T13:23:14;2.90;;;1.00;;
14268;SDS011;7218;51.480;7.006;2022-07-15T13:25:41;1.58;;;1.00;;
14268;SDS011;7218;51.480;7.006;2022-07-15T13:28:08;2.72;;;1.00;;
14268;SDS011;7218;51.480;7.006;2022-07-15T13:30:35;1.55;;;0.90;;
14268;SDS011;7218;51.480;7.006;2022-07-15T13:33:02;2.45;;;0.70;;
14268;SDS011;7218;51.480;7.006;2022-07-15T13:35:30;6.93;;;1.10;;
14268;SDS011;7218;51.480;7.006;2022-07-15T13:37:58;1.10;;;0.77;;
14268;SDS011;7218;51.480;7.006;2022-07-15T13:40:24;3.25;;;0.73;;
14268;SDS011;7218;51.480;7.006;2022-07-15T13:42:51;1.38;;;0.90;;
14268;SDS011;7218;51.480;7.006;2022-07-15T13:45:18;1.33;;;0.95;;
14268;SDS011;7218;51.480;7.006;2022-07-15T13:47:44;2.78;;;1.02;;
14268;SDS011;7218;51.480;7.006;2022-07-15T13:50:11;1.27;;;0.90;;
14268;SDS011;7218;51.480;7.006;2022-07-15T13:52:56;1.10;;;0.85;;
14268;SDS011;7218;51.480;7.006;2022-07-15T13:55:25;0.82;;;0.70;;
14268;SDS011;7218;51.480;7.006;2022-07-15T13:57:52;1.08;;;0.77;;
14268;SDS011;7218;51.480;7.006;2022-07-15T14:00:19;1.42;;;0.75;;
14268;SDS011;7218;51.480;7.006;2022-07-15T14:02:49;1.10;;;0.80;;
14268;SDS011;7218;51.480;7.006;2022-07-15T14:05:17;2.45;;;0.82;;
14268;SDS011;7218;51.480;7.006;2022-07-15T14:07:44;1.98;;;0.80;;
14268;SDS011;7218;51.480;7.006;2022-07-15T14:10:13;7.43;;;1.38;;
14268;SDS011;7218;51.480;7.006;2022-07-15T14:12:40;3.35;;;1.02;;
14268;SDS011;7218;51.480;7.006;2022-07-15T14:15:07;2.30;;;1.00;;
14268;SDS011;7218;51.480;7.006;2022-07-15T14:17:34;3.05;;;0.70;;
14268;SDS011;7218;51.480;7.006;2022-07-15T14:20:01;1.70;;;0.80;;
14268;SDS011;7218;51.480;7.006;2022-07-15T14:22:28;3.20;;;1.25;;
14268;SDS011;7218;51.480;7.006;2022-07-15T14:24:55;1.52;;;1.10;;
14268;SDS011;7218;51.480;7.006;2022-07-15T14:27:24;2.92;;;1.27;;
14268;SDS011;7218;51.480;7.006;2022-07-15T14:29:50;1.00;;;0.90;;
14268;SDS011;7218;51.480;7.006;2022-07-15T14:32:17;2.22;;;1.05;;
14268;SDS011;7218;51.480;7.006;2022-07-15T14:34:43;1.27;;;0.80;;
14268;SDS011;7218;51.480;7.006;2022-07-15T14:37:10;1.08;;;0.90;;
14268;SDS011;7218;51.480;7.006;2022-07-15T14:39:36;2.78;;;1.05;;
14268;SDS011;7218;51.480;7.006;2022-07-15T14:42:03;2.53;;;0.80;;
14268;SDS011;7218;51.480;7.006;2022-07-15T14:44:31;3.25;;;1.35;;
14268;SDS011;7218;51.480;7.006;2022-07-15T14:46:57;2.15;;;1.10;;
14268;SDS011;7218;51.480;7.006;2022-07-15T14:49:24;3.97;;;1.63;;
14268;SDS011;7218;51.480;7.006;2022-07-15T14:51:50;2.30;;;1.10;;
14268;SDS011;7218;51.480;7.006;2022-07-15T14:54:17;3.03;;;0.90;;
14268;SDS011;7218;51.480;7.006;2022-07-15T14:56:44;5.28;;;1.45;;
14268;SDS011;7218;51.480;7.006;2022-07-15T14:59:10;2.03;;;0.80;;
14268;SDS011;7218;51.480;7.006;2022-07-15T15:01:38;3.65;;;0.77;;
14268;SDS011;7218;51.480;7.006;2022-07-15T15:04:05;3.28;;;1.10;;
14268;SDS011;7218;51.480;7.006;2022-07-15T15:06:31;3.33;;;1.00;;
14268;SDS011;7218;51.480;7.006;2022-07-15T15:08:58;1.00;;;0.85;;
14268;SDS011;7218;51.480;7.006;2022-07-15T15:11:24;3.63;;;1.00;;
14268;SDS011;7218;51.480;7.006;2022-07-15T15:13:51;3.33;;;1.08;;
14268;SDS011;7218;51.480;7.006;2022-07-15T15:16:17;2.80;;;1.00;;
14268;SDS011;7218;51.480;7.006;2022-07-15T15:18:45;3.50;;;1.13;;
14268;SDS011;7218;51.480;7.006;2022-07-15T15:21:12;1.30;;;0.90;;
14268;SDS011;7218;51.480;7.006;2022-07-15T15:23:38;1.67;;;1.00;;